logo
Search for airport 
image banner adimage banner adimage banner ad
image banner ad

FATG - Thaba Tholo

Located in Thabazimbi, South Africa

ICAO - , IATA -

Data provided by Airmate  

General information

Coordinates: S24°16'52" E27°13'46"
Elevation is 3200 feet MSL.
 
View others Airports in Limpopo

Operational data

Special qualification required
Current time UTC:
Current local time:
Weather at : - ( 0 km )
METAR: KAFP 220812Z AUTO 00000KT 10SM CLR 15/14 A3003 RMK AO2 T01500144
View NOTAMs / SUP AIP / TFR affecting this airport [VIEW]
Communications frequencies: [VIEW]

Runways:

RWY identifierQFULength (ft)Width (ft)SurfaceLDA (ft)
033937131UNK
213937131UNK

Airport contact information

Address: Thabazimbi South Africa

Satellite view of FATG